Time;durP1;ratioP1;P1;durP2;ratioP2;P2;SDS_P1;SDS_P2;PMS_P1;PMS_P2;Temp;Humidity;BMP_temperature;BMP_pressure;BME280_temperature;BME280_humidity;BME280_pressure;Samples;Min_cycle;Max_cycle;Signal;HPM_P1;HPM_P2
2022/04/24 00:01:15;;;;;;;22.90;5.00;;;;;;;;;;5031806;28;20450;-43
2022/04/24 00:03:42;;;;;;;21.10;4.28;;;;;;;;;;5029167;28;20034;-42
2022/04/24 00:06:09;;;;;;;24.02;5.80;;;;;;;;;;5011101;28;20552;-41
2022/04/24 00:08:36;;;;;;;28.73;5.50;;;;;;;;;;5021310;28;20511;-40
2022/04/24 00:11:03;;;;;;;24.25;5.50;;;;;;;;;;5017520;28;20146;-38
2022/04/24 00:13:37;;;;;;;26.35;4.47;;;;;;;;;;5020402;28;20037;-38
2022/04/24 00:16:05;;;;;;;23.10;5.13;;;;;;;;;;5017231;28;20034;-38
2022/04/24 00:18:32;;;;;;;19.45;5.43;;;;;;;;;;5025585;28;20033;-38
2022/04/24 00:20:59;;;;;;;19.92;5.00;;;;;;;;;;5031046;28;20091;-37
2022/04/24 00:23:26;;;;;;;30.77;5.32;;;;;;;;;;5031260;28;20063;-38
2022/04/24 00:25:53;;;;;;;25.55;4.72;;;;;;;;;;5031985;28;20411;-39
2022/04/24 00:28:20;;;;;;;19.08;5.32;;;;;;;;;;5031860;28;20029;-37
2022/04/24 00:30:47;;;;;;;18.20;5.40;;;;;;;;;;5008654;28;20401;-39
2022/04/24 00:33:14;;;;;;;25.55;6.07;;;;;;;;;;5016628;28;20488;-38
2022/04/24 00:35:41;;;;;;;14.43;4.57;;;;;;;;;;5020296;28;20021;-38
2022/04/24 00:38:08;;;;;;;18.17;5.22;;;;;;;;;;5021103;28;20033;-39
2022/04/24 00:40:35;;;;;;;19.30;5.07;;;;;;;;;;5016502;28;20022;-38
2022/04/24 00:43:02;;;;;;;21.38;4.97;;;;;;;;;;5020592;28;20033;-40
2022/04/24 00:45:29;;;;;;;17.80;5.30;;;;;;;;;;5020949;28;20036;-38
2022/04/24 00:47:59;;;;;;;21.00;5.30;;;;;;;;;;5019364;28;20494;-38
2022/04/24 00:50:26;;;;;;;19.55;4.68;;;;;;;;;;5018576;28;20044;-38
2022/04/24 00:52:54;;;;;;;15.73;4.28;;;;;;;;;;5021428;28;20104;-38
2022/04/24 00:55:25;;;;;;;16.15;4.63;;;;;;;;;;5020107;28;20036;-38
2022/04/24 00:57:52;;;;;;;14.47;4.57;;;;;;;;;;5018730;28;20113;-38
2022/04/24 01:00:19;;;;;;;20.75;5.38;;;;;;;;;;5020498;28;20264;-38
2022/04/24 01:02:46;;;;;;;16.52;4.57;;;;;;;;;;5020541;28;20126;-39
2022/04/24 01:05:16;;;;;;;16.60;4.70;;;;;;;;;;5018871;28;20025;-39
2022/04/24 01:07:42;;;;;;;17.05;4.55;;;;;;;;;;5019145;28;20511;-38
2022/04/24 01:10:09;;;;;;;18.75;5.72;;;;;;;;;;5021380;28;20472;-39
2022/04/24 01:12:37;;;;;;;18.33;5.80;;;;;;;;;;5000976;28;20033;-38
2022/04/24 01:15:04;;;;;;;15.05;5.10;;;;;;;;;;5018608;28;20124;-39
2022/04/24 01:17:32;;;;;;;16.27;4.78;;;;;;;;;;5021416;28;20036;-39
2022/04/24 01:20:00;;;;;;;13.75;4.68;;;;;;;;;;5020042;28;20037;-39
2022/04/24 01:22:27;;;;;;;16.40;5.03;;;;;;;;;;5019851;28;20049;-41
2022/04/24 01:24:54;;;;;;;14.40;5.85;;;;;;;;;;5020005;28;20029;-38
2022/04/24 01:27:20;;;;;;;17.33;4.93;;;;;;;;;;5013666;28;20104;-39
2022/04/24 01:29:48;;;;;;;17.85;5.30;;;;;;;;;;5014593;28;20057;-41
2022/04/24 01:32:14;;;;;;;21.25;5.03;;;;;;;;;;5015295;28;20506;-40
2022/04/24 01:34:41;;;;;;;17.35;5.13;;;;;;;;;;4994224;28;20392;-39
2022/04/24 01:37:11;;;;;;;14.48;4.70;;;;;;;;;;5014368;28;20082;-40
2022/04/24 01:39:38;;;;;;;10.80;4.97;;;;;;;;;;5023770;28;20110;-39
2022/04/24 01:42:06;;;;;;;13.95;4.70;;;;;;;;;;5024764;28;20032;-39
2022/04/24 01:44:33;;;;;;;12.77;4.68;;;;;;;;;;5023581;28;20021;-40
2022/04/24 01:47:00;;;;;;;15.02;4.50;;;;;;;;;;5024541;28;20044;-41
2022/04/24 01:49:27;;;;;;;9.75;4.43;;;;;;;;;;5024467;28;20025;-41
2022/04/24 01:51:54;;;;;;;11.23;4.10;;;;;;;;;;5026558;28;20573;-39
2022/04/24 01:54:21;;;;;;;15.23;4.65;;;;;;;;;;5016632;28;20084;-39
2022/04/24 01:56:48;;;;;;;10.65;4.40;;;;;;;;;;5017995;28;20033;-39
2022/04/24 01:59:15;;;;;;;13.32;4.78;;;;;;;;;;5018500;28;20029;-41
2022/04/24 02:01:42;;;;;;;16.17;4.47;;;;;;;;;;5016515;28;20021;-41
2022/04/24 02:04:09;;;;;;;8.52;3.78;;;;;;;;;;5018079;28;20404;-39
2022/04/24 02:06:36;;;;;;;11.93;3.97;;;;;;;;;;5026717;28;20068;-40
2022/04/24 02:09:03;;;;;;;13.00;4.45;;;;;;;;;;5028538;28;20551;-39
2022/04/24 02:11:30;;;;;;;13.07;3.97;;;;;;;;;;5027041;28;20090;-39
2022/04/24 02:13:57;;;;;;;14.18;3.92;;;;;;;;;;5024752;28;20026;-40
2022/04/24 02:16:24;;;;;;;19.15;3.78;;;;;;;;;;5023331;28;20033;-39
2022/04/24 02:18:53;;;;;;;11.38;4.07;;;;;;;;;;5028645;28;20025;-40
2022/04/24 02:21:20;;;;;;;14.32;3.80;;;;;;;;;;5029615;28;20064;-39
2022/04/24 02:23:47;;;;;;;15.57;3.83;;;;;;;;;;5011043;28;20029;-39
2022/04/24 02:26:14;;;;;;;10.55;3.47;;;;;;;;;;5025595;28;20030;-41
2022/04/24 02:28:41;;;;;;;10.32;3.50;;;;;;;;;;5005783;28;20523;-40
2022/04/24 02:31:08;;;;;;;9.38;3.42;;;;;;;;;;5023805;28;20041;-40
2022/04/24 02:33:35;;;;;;;11.13;3.78;;;;;;;;;;5025090;28;20399;-40
2022/04/24 02:36:02;;;;;;;13.70;3.85;;;;;;;;;;5023530;28;20025;-39
2022/04/24 02:38:29;;;;;;;8.25;3.05;;;;;;;;;;5023160;28;20398;-39
2022/04/24 02:40:57;;;;;;;7.47;3.60;;;;;;;;;;5029815;28;20158;-39
2022/04/24 02:43:24;;;;;;;13.52;3.45;;;;;;;;;;5034008;28;20029;-39
2022/04/24 02:45:51;;;;;;;7.50;3.25;;;;;;;;;;5034407;28;20172;-40
2022/04/24 02:48:17;;;;;;;6.80;3.00;;;;;;;;;;5023163;28;20029;-39
2022/04/24 02:50:44;;;;;;;10.68;3.47;;;;;;;;;;5014304;28;20120;-38
2022/04/24 02:53:11;;;;;;;8.68;3.10;;;;;;;;;;5014408;28;20551;-40
2022/04/24 02:55:39;;;;;;;9.23;3.58;;;;;;;;;;5013545;28;20033;-39
2022/04/24 02:58:06;;;;;;;10.13;3.50;;;;;;;;;;5021400;28;20040;-40
2022/04/24 03:00:43;;;;;;;9.90;3.92;;;;;;;;;;5033906;28;20510;-40
2022/04/24 03:03:10;;;;;;;7.28;3.15;;;;;;;;;;5033822;28;20257;-40
2022/04/24 03:05:37;;;;;;;9.43;3.20;;;;;;;;;;5033475;28;20179;-40
2022/04/24 03:08:05;;;;;;;9.55;3.50;;;;;;;;;;5015907;28;20037;-40
2022/04/24 03:10:32;;;;;;;9.18;3.60;;;;;;;;;;5033615;28;20504;-40
2022/04/24 03:12:59;;;;;;;11.27;3.55;;;;;;;;;;5033511;28;20399;-41
2022/04/24 03:15:26;;;;;;;9.88;3.72;;;;;;;;;;5033789;28;20167;-39
2022/04/24 03:17:54;;;;;;;5.88;2.67;;;;;;;;;;5033598;28;20029;-39
2022/04/24 03:20:25;;;;;;;9.82;3.35;;;;;;;;;;5033468;28;20042;-39
2022/04/24 03:22:52;;;;;;;9.93;3.60;;;;;;;;;;5033600;28;20028;-39
2022/04/24 03:25:19;;;;;;;8.32;3.83;;;;;;;;;;5033227;28;20544;-38
2022/04/24 03:27:46;;;;;;;8.27;3.60;;;;;;;;;;5033434;28;20108;-39
2022/04/24 03:30:13;;;;;;;5.93;3.20;;;;;;;;;;5033271;28;20061;-40
2022/04/24 03:32:40;;;;;;;8.63;2.95;;;;;;;;;;5033037;28;20049;-40
2022/04/24 03:35:09;;;;;;;11.55;3.78;;;;;;;;;;5033208;28;20065;-40
2022/04/24 03:37:36;;;;;;;7.97;3.40;;;;;;;;;;5033459;28;20471;-38
2022/04/24 03:40:04;;;;;;;7.10;3.13;;;;;;;;;;5033017;28;20033;-40
2022/04/24 03:42:31;;;;;;;8.15;3.33;;;;;;;;;;5033581;28;20475;-40
2022/04/24 03:44:58;;;;;;;7.40;3.50;;;;;;;;;;5033026;28;20091;-39
2022/04/24 03:47:26;;;;;;;13.35;3.30;;;;;;;;;;5033214;28;20033;-40
2022/04/24 03:49:53;;;;;;;7.82;3.40;;;;;;;;;;5015897;28;20026;-40
2022/04/24 03:52:20;;;;;;;9.75;3.20;;;;;;;;;;5032933;28;20033;-40
2022/04/24 03:54:47;;;;;;;11.35;3.20;;;;;;;;;;5033688;28;20087;-40
2022/04/24 03:57:14;;;;;;;8.00;2.78;;;;;;;;;;5032975;28;20051;-39
2022/04/24 03:59:41;;;;;;;9.10;3.60;;;;;;;;;;5033137;28;20072;-38
2022/04/24 04:02:08;;;;;;;7.13;3.10;;;;;;;;;;5032990;28;20087;-39
2022/04/24 04:04:35;;;;;;;12.18;3.42;;;;;;;;;;5014309;28;20037;-39
2022/04/24 04:07:02;;;;;;;7.13;3.22;;;;;;;;;;5033167;28;20112;-40
2022/04/24 04:09:30;;;;;;;4.80;3.10;;;;;;;;;;5033864;28;20502;-39
2022/04/24 04:11:57;;;;;;;7.10;2.72;;;;;;;;;;5033048;28;20040;-39
2022/04/24 04:14:24;;;;;;;7.35;3.35;;;;;;;;;;5032954;28;20040;-39
2022/04/24 04:16:51;;;;;;;8.18;3.70;;;;;;;;;;5033052;28;20131;-39
2022/04/24 04:19:18;;;;;;;8.88;3.10;;;;;;;;;;5033355;28;20530;-39
2022/04/24 04:21:45;;;;;;;8.48;3.53;;;;;;;;;;5032699;28;20033;-39
2022/04/24 04:24:12;;;;;;;5.22;3.35;;;;;;;;;;5032880;28;20048;-39
2022/04/24 04:26:39;;;;;;;6.45;3.38;;;;;;;;;;5033097;28;20053;-39
2022/04/24 04:29:06;;;;;;;5.82;3.10;;;;;;;;;;5033127;28;20041;-39
2022/04/24 04:31:33;;;;;;;4.78;2.95;;;;;;;;;;5032682;28;20033;-39
2022/04/24 04:34:00;;;;;;;5.60;2.97;;;;;;;;;;5033103;28;20072;-39
2022/04/24 04:36:27;;;;;;;9.88;2.85;;;;;;;;;;5014907;28;20025;-39
2022/04/24 04:38:54;;;;;;;5.53;3.30;;;;;;;;;;5032686;28;20088;-39
2022/04/24 04:41:21;;;;;;;5.95;3.15;;;;;;;;;;5033119;28;20087;-39
2022/04/24 04:43:48;;;;;;;6.35;2.83;;;;;;;;;;5032606;28;20045;-39
2022/04/24 04:46:15;;;;;;;6.75;2.90;;;;;;;;;;5032390;28;20049;-39
2022/04/24 04:48:42;;;;;;;7.57;3.22;;;;;;;;;;5032362;28;20510;-39
2022/04/24 04:51:09;;;;;;;7.50;2.90;;;;;;;;;;5032445;28;20069;-39
2022/04/24 04:53:36;;;;;;;7.78;3.10;;;;;;;;;;5032928;28;20021;-39
2022/04/24 04:56:03;;;;;;;4.88;2.95;;;;;;;;;;5032552;28;20430;-39
2022/04/24 04:58:30;;;;;;;8.40;2.70;;;;;;;;;;5031927;28;20034;-39
2022/04/24 05:01:00;;;;;;;5.45;2.80;;;;;;;;;;5032576;28;20026;-39
2022/04/24 05:03:27;;;;;;;6.15;2.80;;;;;;;;;;5032069;28;20112;-39
2022/04/24 05:05:54;;;;;;;7.80;3.15;;;;;;;;;;5032200;28;20490;-39
2022/04/24 05:08:21;;;;;;;6.63;3.00;;;;;;;;;;5031985;28;20091;-39
2022/04/24 05:10:48;;;;;;;3.17;2.55;;;;;;;;;;5014333;28;20034;-39
2022/04/24 05:13:15;;;;;;;8.48;2.80;;;;;;;;;;5032308;28;20128;-39
2022/04/24 05:15:42;;;;;;;5.13;3.10;;;;;;;;;;5032464;28;20032;-39
2022/04/24 05:18:09;;;;;;;5.63;3.03;;;;;;;;;;5032000;28;20030;-39
2022/04/24 05:20:36;;;;;;;5.65;2.90;;;;;;;;;;5031824;28;20048;-39
2022/04/24 05:23:04;;;;;;;4.43;2.75;;;;;;;;;;5032136;28;20044;-40
2022/04/24 05:25:32;;;;;;;6.00;3.15;;;;;;;;;;5030870;28;20117;-39
2022/04/24 05:28:00;;;;;;;6.80;3.67;;;;;;;;;;5031792;28;20483;-39
2022/04/24 05:30:31;;;;;;;8.55;3.83;;;;;;;;;;5032165;28;20440;-39
2022/04/24 05:32:58;;;;;;;7.68;3.83;;;;;;;;;;5031154;28;20053;-39
2022/04/24 05:35:25;;;;;;;5.25;3.25;;;;;;;;;;5031651;28;20100;-39
2022/04/24 05:37:52;;;;;;;7.15;4.00;;;;;;;;;;5031965;28;20032;-39
2022/04/24 05:40:19;;;;;;;8.85;3.88;;;;;;;;;;5033257;28;20110;-40
2022/04/24 05:42:49;;;;;;;5.47;3.60;;;;;;;;;;5033116;28;20117;-40
2022/04/24 05:45:18;;;;;;;7.80;3.65;;;;;;;;;;5032185;28;20036;-39
2022/04/24 05:47:47;;;;;;;6.18;3.47;;;;;;;;;;5030951;28;20040;-39
2022/04/24 05:50:15;;;;;;;6.47;4.13;;;;;;;;;;5031560;28;20033;-39
2022/04/24 05:52:42;;;;;;;5.43;3.55;;;;;;;;;;5031762;28;20092;-39
2022/04/24 05:55:09;;;;;;;9.07;3.70;;;;;;;;;;5013438;28;20455;-39
2022/04/24 05:57:37;;;;;;;6.47;3.58;;;;;;;;;;5031402;28;20100;-39
2022/04/24 06:00:05;;;;;;;9.73;3.80;;;;;;;;;;5031622;28;20029;-39
2022/04/24 06:02:32;;;;;;;8.23;3.33;;;;;;;;;;5031961;28;20049;-39
2022/04/24 06:04:59;;;;;;;10.88;4.00;;;;;;;;;;5030993;28;20030;-39
2022/04/24 06:07:26;;;;;;;7.38;3.58;;;;;;;;;;5031762;28;20104;-39
2022/04/24 06:09:53;;;;;;;5.32;3.20;;;;;;;;;;5031638;28;20399;-39
2022/04/24 06:12:20;;;;;;;5.55;3.65;;;;;;;;;;5031739;28;20034;-39
2022/04/24 06:14:47;;;;;;;6.57;3.65;;;;;;;;;;5031948;28;20053;-39
2022/04/24 06:17:14;;;;;;;6.53;3.90;;;;;;;;;;5031105;28;20042;-39
2022/04/24 06:19:41;;;;;;;6.32;3.40;;;;;;;;;;5031459;28;20430;-39
2022/04/24 06:22:08;;;;;;;5.28;3.70;;;;;;;;;;5031599;28;20502;-39
2022/04/24 06:24:35;;;;;;;5.65;3.80;;;;;;;;;;5031472;28;20022;-39
2022/04/24 06:27:02;;;;;;;6.03;3.70;;;;;;;;;;5031627;28;20022;-39
2022/04/24 06:29:29;;;;;;;6.50;3.97;;;;;;;;;;5031214;28;20030;-40
2022/04/24 06:31:56;;;;;;;5.40;3.45;;;;;;;;;;5030578;28;20099;-39
2022/04/24 06:34:23;;;;;;;5.20;3.33;;;;;;;;;;5031392;28;20045;-39
2022/04/24 06:36:50;;;;;;;5.22;3.15;;;;;;;;;;5033378;28;20026;-39
2022/04/24 06:39:17;;;;;;;4.03;2.78;;;;;;;;;;5035513;28;20076;-43
2022/04/24 06:41:43;;;;;;;8.20;3.40;;;;;;;;;;5034425;28;20135;-39
2022/04/24 06:44:10;;;;;;;6.95;3.28;;;;;;;;;;5035339;28;20480;-39
2022/04/24 06:46:37;;;;;;;6.70;3.40;;;;;;;;;;5035368;28;20077;-39
2022/04/24 06:49:04;;;;;;;4.63;3.33;;;;;;;;;;5034984;28;20034;-39
2022/04/24 06:51:31;;;;;;;5.70;3.38;;;;;;;;;;5034465;28;20109;-39
2022/04/24 06:53:58;;;;;;;6.72;2.90;;;;;;;;;;5035277;28;20033;-39
2022/04/24 06:56:25;;;;;;;3.80;2.97;;;;;;;;;;5033968;28;20036;-39
2022/04/24 06:58:52;;;;;;;4.65;2.80;;;;;;;;;;5035257;28;20387;-39
2022/04/24 07:01:19;;;;;;;5.78;2.80;;;;;;;;;;5034819;28;20028;-40
2022/04/24 07:03:46;;;;;;;5.43;3.10;;;;;;;;;;5034478;28;20030;-39
2022/04/24 07:06:13;;;;;;;4.70;2.95;;;;;;;;;;5035045;28;20021;-39
2022/04/24 07:08:40;;;;;;;5.00;3.03;;;;;;;;;;5034721;28;20029;-39
2022/04/24 07:11:08;;;;;;;5.65;3.13;;;;;;;;;;5033819;28;20057;-39
2022/04/24 07:13:36;;;;;;;6.45;3.50;;;;;;;;;;5034821;28;20029;-39
2022/04/24 07:16:03;;;;;;;5.32;3.50;;;;;;;;;;5034731;28;20037;-40
2022/04/24 07:18:30;;;;;;;5.60;3.17;;;;;;;;;;5033948;28;20071;-39
2022/04/24 07:20:58;;;;;;;4.57;2.95;;;;;;;;;;5034499;28;20091;-39
2022/04/24 07:23:25;;;;;;;3.85;2.88;;;;;;;;;;5033724;28;20029;-39
2022/04/24 07:25:52;;;;;;;3.25;2.58;;;;;;;;;;5034603;28;20179;-39
2022/04/24 07:28:19;;;;;;;4.78;3.08;;;;;;;;;;5033752;28;20031;-39
2022/04/24 07:30:47;;;;;;;7.20;3.17;;;;;;;;;;5033837;28;20033;-39
2022/04/24 07:33:14;;;;;;;8.82;3.55;;;;;;;;;;5033946;28;20149;-39
2022/04/24 07:35:41;;;;;;;8.02;3.63;;;;;;;;;;5033802;28;20076;-40
2022/04/24 07:38:08;;;;;;;5.32;2.90;;;;;;;;;;5034060;28;20041;-39
2022/04/24 07:40:36;;;;;;;5.72;3.08;;;;;;;;;;5034527;28;20490;-40
2022/04/24 07:43:04;;;;;;;7.22;3.80;;;;;;;;;;5033519;28;20026;-40
2022/04/24 07:45:41;;;;;;;5.10;3.40;;;;;;;;;;5033955;28;20108;-40
2022/04/24 07:48:14;;;;;;;5.22;3.25;;;;;;;;;;5032849;28;20414;-40
2022/04/24 07:50:42;;;;;;;7.25;3.33;;;;;;;;;;5033934;28;20033;-39
2022/04/24 07:53:09;;;;;;;4.97;3.28;;;;;;;;;;5033662;28;20107;-40
2022/04/24 07:55:36;;;;;;;7.63;3.97;;;;;;;;;;5033665;28;20479;-41
2022/04/24 07:58:04;;;;;;;4.53;3.05;;;;;;;;;;5033685;28;20021;-40
2022/04/24 08:03:48;;;;;;;4.95;3.50;;;;;;;;;;5035272;28;20110;-40
2022/04/24 08:09:31;;;;;;;4.25;3.03;;;;;;;;;;5035004;28;20099;-39
2022/04/24 08:15:14;;;;;;;5.40;3.05;;;;;;;;;;5034857;28;20076;-40
2022/04/24 08:17:41;;;;;;;7.00;3.63;;;;;;;;;;5034016;28;20041;-39
2022/04/24 08:20:09;;;;;;;4.40;3.17;;;;;;;;;;5033522;28;20040;-39
2022/04/24 08:22:43;;;;;;;4.57;3.03;;;;;;;;;;5033012;28;20029;-39
2022/04/24 08:25:11;;;;;;;4.70;3.20;;;;;;;;;;5032824;28;20034;-39
2022/04/24 08:27:38;;;;;;;3.85;3.20;;;;;;;;;;5032904;28;20113;-39
2022/04/24 08:30:07;;;;;;;6.60;3.60;;;;;;;;;;5033082;28;20060;-39
2022/04/24 08:32:34;;;;;;;4.22;3.13;;;;;;;;;;5033151;28;20033;-40
2022/04/24 08:35:01;;;;;;;4.05;2.90;;;;;;;;;;5014494;28;20041;-40
2022/04/24 08:37:29;;;;;;;4.85;3.50;;;;;;;;;;5033228;28;20025;-40
2022/04/24 08:39:56;;;;;;;5.63;3.20;;;;;;;;;;5032646;28;20026;-40
2022/04/24 08:42:23;;;;;;;3.75;2.90;;;;;;;;;;5032866;28;20483;-40
2022/04/24 08:44:50;;;;;;;4.00;2.80;;;;;;;;;;5033182;28;20075;-39
2022/04/24 08:47:18;;;;;;;4.82;3.40;;;;;;;;;;5032134;28;20033;-40
2022/04/24 08:49:45;;;;;;;4.07;3.20;;;;;;;;;;5032505;28;20384;-39
2022/04/24 08:52:12;;;;;;;4.45;2.85;;;;;;;;;;5032833;28;20552;-39
2022/04/24 08:54:41;;;;;;;6.60;3.33;;;;;;;;;;5032694;28;20017;-39
2022/04/24 08:57:09;;;;;;;4.63;2.92;;;;;;;;;;5032142;28;20025;-39
2022/04/24 08:59:37;;;;;;;4.65;3.03;;;;;;;;;;5032423;28;20029;-39
2022/04/24 09:02:04;;;;;;;4.18;2.90;;;;;;;;;;5032438;28;20447;-39
2022/04/24 09:04:35;;;;;;;4.15;2.85;;;;;;;;;;5032564;28;20037;-39
2022/04/24 09:07:03;;;;;;;4.57;2.95;;;;;;;;;;5032778;28;20080;-39
2022/04/24 09:09:44;;;;;;;4.05;3.00;;;;;;;;;;5014422;28;20392;-39
2022/04/24 09:12:11;;;;;;;4.88;3.28;;;;;;;;;;5031934;28;20513;-39
2022/04/24 09:14:39;;;;;;;3.92;2.70;;;;;;;;;;5032365;28;20091;-39
2022/04/24 09:17:07;;;;;;;4.00;2.90;;;;;;;;;;5032621;28;20021;-39
2022/04/24 09:19:36;;;;;;;3.78;3.00;;;;;;;;;;5031779;28;20474;-39
2022/04/24 09:22:07;;;;;;;3.45;2.65;;;;;;;;;;5032508;28;20029;-39
2022/04/24 09:24:41;;;;;;;5.28;2.95;;;;;;;;;;5031882;28;20057;-39
2022/04/24 09:27:09;;;;;;;3.78;2.78;;;;;;;;;;5032516;28;20029;-39
2022/04/24 09:29:36;;;;;;;4.18;2.72;;;;;;;;;;5031729;28;20033;-40
2022/04/24 09:32:09;;;;;;;3.55;2.75;;;;;;;;;;5032237;28;20036;-40
2022/04/24 09:34:37;;;;;;;5.13;2.80;;;;;;;;;;5013452;28;20091;-39
2022/04/24 09:37:05;;;;;;;3.30;2.78;;;;;;;;;;5031440;28;20128;-40
2022/04/24 09:39:33;;;;;;;3.65;3.20;;;;;;;;;;5032264;28;20025;-40
2022/04/24 09:42:07;;;;;;;4.10;2.92;;;;;;;;;;5032049;28;20037;-40
2022/04/24 09:44:42;;;;;;;3.97;2.88;;;;;;;;;;5031661;28;20024;-39
2022/04/24 09:47:09;;;;;;;5.10;2.78;;;;;;;;;;5013380;28;20435;-40
2022/04/24 09:49:41;;;;;;;4.03;2.80;;;;;;;;;;5032145;28;20451;-39
2022/04/24 09:52:12;;;;;;;3.00;2.50;;;;;;;;;;5031897;28;20118;-40
2022/04/24 09:54:40;;;;;;;5.18;2.83;;;;;;;;;;5031363;28;20395;-40
2022/04/24 09:57:08;;;;;;;3.90;2.80;;;;;;;;;;5031947;28;20029;-40
2022/04/24 09:59:36;;;;;;;3.75;2.78;;;;;;;;;;5031116;28;20033;-39
2022/04/24 10:02:04;;;;;;;4.15;2.75;;;;;;;;;;5031614;28;20119;-40
2022/04/24 10:04:34;;;;;;;4.03;2.78;;;;;;;;;;5031817;28;20021;-40
2022/04/24 10:07:02;;;;;;;5.38;2.83;;;;;;;;;;5031217;28;20103;-40
2022/04/24 10:09:30;;;;;;;5.45;2.42;;;;;;;;;;5031687;28;20156;-40
2022/04/24 10:12:01;;;;;;;4.05;2.58;;;;;;;;;;5034665;28;20120;-40
2022/04/24 10:14:29;;;;;;;3.45;2.67;;;;;;;;;;5035642;28;20044;-40
2022/04/24 10:17:18;;;;;;;3.75;2.55;;;;;;;;;;5035141;28;20157;-40
2022/04/24 10:19:46;;;;;;;4.63;3.20;;;;;;;;;;4990712;28;20038;-39
2022/04/24 10:22:25;;;;;;;3.33;2.70;;;;;;;;;;5035571;28;20088;-39
2022/04/24 10:24:59;;;;;;;3.08;2.60;;;;;;;;;;5034940;28;20121;-39
2022/04/24 10:27:36;;;;;;;3.03;2.55;;;;;;;;;;5034819;28;20022;-39
2022/04/24 10:30:04;;;;;;;3.67;2.25;;;;;;;;;;5035110;28;20045;-39
2022/04/24 10:32:32;;;;;;;2.92;2.20;;;;;;;;;;5035109;28;20038;-39
2022/04/24 10:35:02;;;;;;;3.25;2.80;;;;;;;;;;5035193;28;20052;-39
2022/04/24 10:37:33;;;;;;;3.60;2.55;;;;;;;;;;5035176;28;20399;-39
2022/04/24 10:40:02;;;;;;;3.30;2.33;;;;;;;;;;5035416;28;20527;-39
2022/04/24 10:42:30;;;;;;;4.18;2.47;;;;;;;;;;5034651;28;20060;-39
2022/04/24 10:45:04;;;;;;;3.08;2.40;;;;;;;;;;5035167;28;20045;-39
2022/04/24 10:47:42;;;;;;;3.15;2.50;;;;;;;;;;5034667;28;20041;-39
2022/04/24 10:50:09;;;;;;;3.35;2.47;;;;;;;;;;5034198;28;20030;-39
2022/04/24 10:52:40;;;;;;;2.72;1.88;;;;;;;;;;5034793;28;20395;-39
2022/04/24 10:55:08;;;;;;;2.92;2.55;;;;;;;;;;5034997;28;20025;-39
2022/04/24 10:57:41;;;;;;;3.03;1.95;;;;;;;;;;5034287;28;20112;-39
2022/04/24 11:00:19;;;;;;;2.60;2.20;;;;;;;;;;5035251;28;20083;-39
2022/04/24 11:02:47;;;;;;;3.30;2.30;;;;;;;;;;5034544;28;20483;-39
2022/04/24 11:05:19;;;;;;;2.88;2.25;;;;;;;;;;5034592;28;20486;-39
2022/04/24 11:07:46;;;;;;;3.47;2.00;;;;;;;;;;5034878;28;20030;-39
2022/04/24 11:10:14;;;;;;;3.40;2.70;;;;;;;;;;5034606;28;20061;-39
2022/04/24 11:12:42;;;;;;;2.72;2.53;;;;;;;;;;5034087;28;20099;-39
2022/04/24 11:15:10;;;;;;;2.65;2.03;;;;;;;;;;5034699;28;20034;-39
2022/04/24 11:17:37;;;;;;;2.90;2.42;;;;;;;;;;5034094;28;20037;-39
2022/04/24 11:20:09;;;;;;;3.05;2.47;;;;;;;;;;5034593;28;20475;-39
2022/04/24 11:22:49;;;;;;;4.20;2.80;;;;;;;;;;5033369;28;20033;-39
2022/04/24 11:25:17;;;;;;;4.13;2.15;;;;;;;;;;5034207;28;20256;-39
2022/04/24 11:27:45;;;;;;;4.93;2.33;;;;;;;;;;5033616;28;20407;-39
2022/04/24 11:30:18;;;;;;;3.53;2.63;;;;;;;;;;5033946;28;20029;-39
2022/04/24 11:33:04;;;;;;;2.22;1.92;;;;;;;;;;5033941;28;20507;-39
2022/04/24 11:35:31;;;;;;;3.65;2.17;;;;;;;;;;5033836;28;20045;-39
2022/04/24 11:37:59;;;;;;;2.97;2.13;;;;;;;;;;5033969;28;20152;-39
2022/04/24 11:40:28;;;;;;;2.97;2.33;;;;;;;;;;5033591;28;20049;-39
2022/04/24 11:43:05;;;;;;;2.78;2.30;;;;;;;;;;5034180;28;20033;-39
2022/04/24 11:51:19;;;;;;;3.53;2.22;;;;;;;;;;5033981;28;20116;-39
2022/04/24 11:53:46;;;;;;;2.55;2.35;;;;;;;;;;5033844;28;20033;-39
2022/04/24 11:56:15;;;;;;;2.85;2.33;;;;;;;;;;5033262;28;20386;-39
2022/04/24 11:58:44;;;;;;;2.75;2.15;;;;;;;;;;5033964;28;20026;-39
2022/04/24 12:01:17;;;;;;;2.67;2.03;;;;;;;;;;5027237;28;20443;-40
2022/04/24 12:03:45;;;;;;;2.55;2.17;;;;;;;;;;5033209;28;20048;-39
2022/04/24 12:06:13;;;;;;;2.72;2.53;;;;;;;;;;5025323;28;20049;-39
2022/04/24 12:08:49;;;;;;;2.50;1.98;;;;;;;;;;5032430;28;20034;-38
2022/04/24 12:11:29;;;;;;;3.42;2.28;;;;;;;;;;5033320;28;20044;-38
2022/04/24 12:14:13;;;;;;;2.80;2.03;;;;;;;;;;5032653;28;20029;-39
2022/04/24 12:16:41;;;;;;;4.63;2.58;;;;;;;;;;5032860;28;20045;-39
2022/04/24 12:19:10;;;;;;;3.67;2.65;;;;;;;;;;5033044;28;20535;-39
2022/04/24 12:21:45;;;;;;;3.00;2.70;;;;;;;;;;5033331;28;20026;-38
2022/04/24 12:24:12;;;;;;;5.28;3.08;;;;;;;;;;5032456;28;20029;-38
2022/04/24 12:26:47;;;;;;;4.07;3.10;;;;;;;;;;5032267;28;20036;-38
2022/04/24 12:29:15;;;;;;;4.05;2.63;;;;;;;;;;5032558;28;20057;-38
2022/04/24 12:31:43;;;;;;;5.05;2.95;;;;;;;;;;5032937;28;20045;-38
2022/04/24 12:34:10;;;;;;;4.57;3.22;;;;;;;;;;5031515;28;20531;-39
2022/04/24 12:36:47;;;;;;;3.55;2.72;;;;;;;;;;5030818;28;20038;-39
2022/04/24 12:39:14;;;;;;;5.40;2.75;;;;;;;;;;5032167;28;20032;-38
2022/04/24 12:41:41;;;;;;;4.93;2.92;;;;;;;;;;5027236;28;20032;-38
2022/04/24 12:44:08;;;;;;;4.10;3.20;;;;;;;;;;5030001;28;20045;-38
2022/04/24 12:46:36;;;;;;;2.90;2.38;;;;;;;;;;5032225;28;20391;-38
2022/04/24 12:49:04;;;;;;;6.20;2.72;;;;;;;;;;5031681;28;20091;-38
2022/04/24 12:51:31;;;;;;;5.45;3.10;;;;;;;;;;5032489;28;20486;-38
2022/04/24 12:53:59;;;;;;;4.43;2.53;;;;;;;;;;5031972;28;20021;-38
2022/04/24 12:56:26;;;;;;;5.30;2.70;;;;;;;;;;5032413;28;20029;-38
2022/04/24 12:58:53;;;;;;;4.28;2.65;;;;;;;;;;5019000;28;20026;-39
2022/04/24 13:01:24;;;;;;;3.42;2.80;;;;;;;;;;5012850;28;20055;-39
2022/04/24 13:03:50;;;;;;;4.85;2.88;;;;;;;;;;5011973;28;20048;-39
2022/04/24 13:06:18;;;;;;;3.78;2.40;;;;;;;;;;5012531;28;20028;-40
2022/04/24 13:08:46;;;;;;;2.97;2.50;;;;;;;;;;5012194;28;20365;-39
2022/04/24 13:11:13;;;;;;;3.40;2.42;;;;;;;;;;5012273;28;20070;-39
2022/04/24 13:13:42;;;;;;;5.28;2.70;;;;;;;;;;4993987;28;20046;-39
2022/04/24 13:18:54;;;;;;;4.05;2.55;;;;;;;;;;5018156;28;20044;-39
2022/04/24 13:21:22;;;;;;;4.13;2.38;;;;;;;;;;5022387;28;20036;-39
2022/04/24 13:23:49;;;;;;;3.20;2.25;;;;;;;;;;5025622;28;20029;-39
2022/04/24 13:26:16;;;;;;;5.07;2.50;;;;;;;;;;5031516;28;20108;-40
2022/04/24 13:28:43;;;;;;;3.10;2.20;;;;;;;;;;5031802;28;20025;-39
2022/04/24 13:31:10;;;;;;;5.72;2.80;;;;;;;;;;5031133;28;20112;-39
2022/04/24 13:33:37;;;;;;;2.45;1.83;;;;;;;;;;5031299;28;20053;-39
2022/04/24 13:36:04;;;;;;;3.75;2.63;;;;;;;;;;5013319;28;20493;-38
2022/04/24 13:38:32;;;;;;;5.63;2.45;;;;;;;;;;5031931;28;20025;-38
2022/04/24 13:41:05;;;;;;;8.20;5.60;;;;;;;;;;5030961;28;20038;-39
2022/04/24 13:43:36;;;;;;;21.67;11.98;;;;;;;;;;5030710;28;20076;-39
2022/04/24 13:46:09;;;;;;;22.40;14.50;;;;;;;;;;5030983;28;20030;-39
2022/04/24 13:48:36;;;;;;;30.60;15.68;;;;;;;;;;5031429;28;20080;-39
2022/04/24 13:51:05;;;;;;;25.58;15.95;;;;;;;;;;5031416;28;20054;-39
2022/04/24 13:53:33;;;;;;;25.33;14.48;;;;;;;;;;5025837;28;20057;-39
2022/04/24 13:56:00;;;;;;;24.77;13.90;;;;;;;;;;5015212;28;20026;-39
2022/04/24 13:58:28;;;;;;;24.05;13.85;;;;;;;;;;5011861;28;20117;-38
2022/04/24 14:00:55;;;;;;;22.58;12.73;;;;;;;;;;5016919;28;20040;-39
2022/04/24 14:03:22;;;;;;;17.25;11.27;;;;;;;;;;4993795;28;20520;-38
2022/04/24 14:05:49;;;;;;;21.75;11.75;;;;;;;;;;5011516;28;20041;-38
2022/04/24 14:08:17;;;;;;;19.20;11.55;;;;;;;;;;5011695;28;20029;-38
2022/04/24 14:10:44;;;;;;;16.20;9.88;;;;;;;;;;5025196;28;20115;-38
2022/04/24 14:13:11;;;;;;;17.25;10.82;;;;;;;;;;5022532;28;20034;-39
2022/04/24 14:15:39;;;;;;;19.20;9.50;;;;;;;;;;5002887;28;20083;-39
2022/04/24 14:18:06;;;;;;;15.15;8.82;;;;;;;;;;5021485;28;20037;-39
2022/04/24 14:20:33;;;;;;;18.08;9.68;;;;;;;;;;4991996;28;20030;-38
2022/04/24 14:23:02;;;;;;;18.08;9.23;;;;;;;;;;5011274;28;20059;-39
2022/04/24 14:25:29;;;;;;;14.18;8.90;;;;;;;;;;5021887;28;20033;-39
2022/04/24 14:27:56;;;;;;;17.85;7.85;;;;;;;;;;5018586;28;20041;-39
2022/04/24 14:30:23;;;;;;;14.07;7.40;;;;;;;;;;5019407;28;20033;-39
2022/04/24 14:32:50;;;;;;;14.57;8.00;;;;;;;;;;5011253;28;20132;-39
2022/04/24 14:35:19;;;;;;;14.60;8.27;;;;;;;;;;5013717;28;20026;-39
2022/04/24 14:37:46;;;;;;;16.85;7.45;;;;;;;;;;5011300;28;20026;-39
2022/04/24 14:40:13;;;;;;;16.33;8.50;;;;;;;;;;5013419;28;20032;-39
2022/04/24 14:42:40;;;;;;;15.50;8.15;;;;;;;;;;5028594;28;20025;-39
2022/04/24 14:45:08;;;;;;;16.23;7.97;;;;;;;;;;5031287;28;20384;-39
2022/04/24 14:55:53;;;;;;;17.23;7.63;;;;;;;;;;5031085;28;20557;-39
2022/04/24 14:58:22;;;;;;;13.60;7.68;;;;;;;;;;5015925;28;20087;-39
2022/04/24 15:00:50;;;;;;;13.82;8.05;;;;;;;;;;5034708;28;20127;-39
2022/04/24 15:03:18;;;;;;;13.50;7.28;;;;;;;;;;5033651;28;20032;-39
2022/04/24 15:05:46;;;;;;;16.30;7.10;;;;;;;;;;5034161;28;20109;-39
2022/04/24 15:08:13;;;;;;;11.27;7.07;;;;;;;;;;5034480;28;20033;-39
2022/04/24 15:10:45;;;;;;;11.82;7.00;;;;;;;;;;5034319;28;20459;-40